sensor_id;sensor_type;location;lat;lon;timestamp;pressure;altitude;pressure_sealevel;temperature;humidity
49000;BME280;34808;48.144;17.158;2022-10-16T00:01:13;100320.09;;;13.61;100.00
49000;BME280;34808;48.144;17.158;2022-10-16T00:03:40;100227.84;;;13.18;100.00
49000;BME280;34808;48.144;17.158;2022-10-16T00:06:06;100323.94;;;13.72;100.00
49000;BME280;34808;48.144;17.158;2022-10-16T00:08:32;100222.94;;;13.14;100.00
49000;BME280;34808;48.144;17.158;2022-10-16T00:11:09;100275.22;;;13.49;100.00
49000;BME280;34808;48.144;17.158;2022-10-16T00:13:36;100236.66;;;13.25;100.00
49000;BME280;34808;48.144;17.158;2022-10-16T00:16:02;100293.75;;;13.51;100.00
49000;BME280;34808;48.144;17.158;2022-10-16T00:18:29;100304.03;;;13.61;100.00
49000;BME280;34808;48.144;17.158;2022-10-16T00:20:55;100303.84;;;13.49;100.00
49000;BME280;34808;48.144;17.158;2022-10-16T00:23:21;100003.44;;;11.64;100.00
49000;BME280;34808;48.144;17.158;2022-10-16T00:26:00;100314.50;;;13.56;100.00
49000;BME280;34808;48.144;17.158;2022-10-16T00:28:26;100252.94;;;13.16;100.00
49000;BME280;34808;48.144;17.158;2022-10-16T00:30:52;100313.09;;;13.53;100.00
49000;BME280;34808;48.144;17.158;2022-10-16T00:33:18;100287.44;;;13.32;100.00
49000;BME280;34808;48.144;17.158;2022-10-16T00:35:43;100322.78;;;13.47;100.00
49000;BME280;34808;48.144;17.158;2022-10-16T00:38:09;100129.44;;;12.27;100.00
49000;BME280;34808;48.144;17.158;2022-10-16T00:40:34;100195.13;;;12.56;100.00
49000;BME280;34808;48.144;17.158;2022-10-16T00:42:59;100089.19;;;11.95;100.00
49000;BME280;34808;48.144;17.158;2022-10-16T00:45:25;100196.97;;;12.55;100.00
49000;BME280;34808;48.144;17.158;2022-10-16T00:47:51;100225.31;;;12.63;100.00
49000;BME280;34808;48.144;17.158;2022-10-16T00:50:26;100295.94;;;13.15;100.00
49000;BME280;34808;48.144;17.158;2022-10-16T00:52:53;100207.84;;;12.54;100.00
49000;BME280;34808;48.144;17.158;2022-10-16T00:55:19;100335.59;;;13.32;100.00
49000;BME280;34808;48.144;17.158;2022-10-16T00:57:45;100137.22;;;12.02;100.00
49000;BME280;34808;48.144;17.158;2022-10-16T01:00:17;100294.13;;;12.95;100.00
49000;BME280;34808;48.144;17.158;2022-10-16T01:02:43;100327.63;;;13.18;100.00
49000;BME280;34808;48.144;17.158;2022-10-16T01:05:09;100329.03;;;13.27;100.00
49000;BME280;34808;48.144;17.158;2022-10-16T01:13:11;100361.38;;;13.05;100.00
49000;BME280;34808;48.144;17.158;2022-10-16T01:16:46;100342.59;;;13.19;100.00
49000;BME280;34808;48.144;17.158;2022-10-16T01:18:50;100310.56;;;12.92;100.00
49000;BME280;34808;48.144;17.158;2022-10-16T01:21:28;100189.84;;;12.22;100.00
49000;BME280;34808;48.144;17.158;2022-10-16T01:27:06;100346.75;;;13.01;100.00
49000;BME280;34808;48.144;17.158;2022-10-16T01:29:39;100196.56;;;12.11;100.00
49000;BME280;34808;48.144;17.158;2022-10-16T01:32:15;100246.31;;;12.53;100.00
49000;BME280;34808;48.144;17.158;2022-10-16T01:34:49;100172.94;;;12.01;100.00
49000;BME280;34808;48.144;17.158;2022-10-16T01:37:21;100185.69;;;11.99;100.00
49000;BME280;34808;48.144;17.158;2022-10-16T01:39:49;100154.69;;;11.77;100.00
49000;BME280;34808;48.144;17.158;2022-10-16T01:42:22;100249.78;;;12.39;100.00
49000;BME280;34808;48.144;17.158;2022-10-16T01:44:51;100363.22;;;12.98;100.00
49000;BME280;34808;48.144;17.158;2022-10-16T01:47:18;100306.91;;;12.59;100.00
49000;BME280;34808;48.144;17.158;2022-10-16T01:49:46;100349.84;;;12.84;100.00
49000;BME280;34808;48.144;17.158;2022-10-16T01:52:16;100360.34;;;12.86;100.00
49000;BME280;34808;48.144;17.158;2022-10-16T01:54:46;100254.31;;;12.25;100.00
49000;BME280;34808;48.144;17.158;2022-10-16T01:57:13;100368.38;;;12.93;100.00
49000;BME280;34808;48.144;17.158;2022-10-16T01:59:51;100360.53;;;12.91;100.00
49000;BME280;34808;48.144;17.158;2022-10-16T02:02:20;100173.97;;;11.66;100.00
49000;BME280;34808;48.144;17.158;2022-10-16T02:04:53;100348.22;;;12.77;100.00
49000;BME280;34808;48.144;17.158;2022-10-16T02:07:18;100351.28;;;12.73;100.00
49000;BME280;34808;48.144;17.158;2022-10-16T02:09:44;100365.50;;;12.81;100.00
49000;BME280;34808;48.144;17.158;2022-10-16T02:14:38;100360.97;;;12.68;100.00
49000;BME280;34808;48.144;17.158;2022-10-16T02:17:15;100348.81;;;12.79;100.00
49000;BME280;34808;48.144;17.158;2022-10-16T02:19:41;100357.47;;;12.81;100.00
49000;BME280;34808;48.144;17.158;2022-10-16T02:22:10;100341.84;;;12.71;100.00
49000;BME280;34808;48.144;17.158;2022-10-16T02:24:54;100353.75;;;12.82;100.00
49000;BME280;34808;48.144;17.158;2022-10-16T02:27:29;100346.16;;;12.72;100.00
49000;BME280;34808;48.144;17.158;2022-10-16T02:30:13;100335.06;;;12.61;100.00
49000;BME280;34808;48.144;17.158;2022-10-16T02:32:42;100326.63;;;12.58;100.00
49000;BME280;34808;48.144;17.158;2022-10-16T02:35:08;100300.72;;;12.38;100.00
49000;BME280;34808;48.144;17.158;2022-10-16T02:37:34;100192.22;;;11.82;100.00
49000;BME280;34808;48.144;17.158;2022-10-16T02:40:01;100354.59;;;12.89;100.00
49000;BME280;34808;48.144;17.158;2022-10-16T02:42:38;100360.34;;;12.79;100.00
49000;BME280;34808;48.144;17.158;2022-10-16T02:45:06;100343.47;;;12.79;100.00
49000;BME280;34808;48.144;17.158;2022-10-16T02:47:31;100231.25;;;12.04;100.00
49000;BME280;34808;48.144;17.158;2022-10-16T02:49:57;100302.16;;;12.47;100.00
49000;BME280;34808;48.144;17.158;2022-10-16T02:52:22;100307.75;;;12.53;100.00
49000;BME280;34808;48.144;17.158;2022-10-16T02:54:47;100238.03;;;11.93;100.00
49000;BME280;34808;48.144;17.158;2022-10-16T02:57:13;100362.41;;;12.84;100.00
49000;BME280;34808;48.144;17.158;2022-10-16T02:59:38;100381.50;;;12.94;100.00
49000;BME280;34808;48.144;17.158;2022-10-16T03:02:04;100354.78;;;12.88;100.00
49000;BME280;34808;48.144;17.158;2022-10-16T03:04:29;100182.19;;;11.78;100.00
49000;BME280;34808;48.144;17.158;2022-10-16T03:06:56;100358.28;;;12.88;100.00
49000;BME280;34808;48.144;17.158;2022-10-16T03:09:21;100211.53;;;11.98;100.00
49000;BME280;34808;48.144;17.158;2022-10-16T03:11:46;100203.53;;;11.91;100.00
49000;BME280;34808;48.144;17.158;2022-10-16T03:14:11;100352.94;;;12.68;100.00
49000;BME280;34808;48.144;17.158;2022-10-16T03:16:37;100368.78;;;12.90;100.00
49000;BME280;34808;48.144;17.158;2022-10-16T03:19:02;100364.03;;;12.92;100.00
49000;BME280;34808;48.144;17.158;2022-10-16T03:21:28;100373.28;;;12.89;100.00
49000;BME280;34808;48.144;17.158;2022-10-16T03:23:53;100355.41;;;12.76;100.00
49000;BME280;34808;48.144;17.158;2022-10-16T03:26:18;100256.56;;;12.15;100.00
49000;BME280;34808;48.144;17.158;2022-10-16T03:28:44;100198.19;;;11.78;100.00
49000;BME280;34808;48.144;17.158;2022-10-16T03:31:09;100404.56;;;13.02;100.00
49000;BME280;34808;48.144;17.158;2022-10-16T03:33:34;100353.16;;;12.73;100.00
49000;BME280;34808;48.144;17.158;2022-10-16T03:36:01;99916.28;;;9.93;100.00
49000;BME280;34808;48.144;17.158;2022-10-16T03:38:26;100356.22;;;12.70;100.00
49000;BME280;34808;48.144;17.158;2022-10-16T03:40:51;100402.69;;;12.89;100.00
49000;BME280;34808;48.144;17.158;2022-10-16T03:43:19;100410.09;;;12.87;100.00
49000;BME280;34808;48.144;17.158;2022-10-16T03:45:44;100407.63;;;12.86;100.00
49000;BME280;34808;48.144;17.158;2022-10-16T03:48:10;100412.34;;;12.97;100.00
49000;BME280;34808;48.144;17.158;2022-10-16T03:50:36;100342.22;;;12.47;100.00
49000;BME280;34808;48.144;17.158;2022-10-16T03:53:01;100258.16;;;11.95;100.00
49000;BME280;34808;48.144;17.158;2022-10-16T03:55:26;100365.03;;;12.36;100.00
49000;BME280;34808;48.144;17.158;2022-10-16T03:57:52;100414.81;;;12.65;100.00
49000;BME280;34808;48.144;17.158;2022-10-16T04:00:17;100398.78;;;12.65;100.00
49000;BME280;34808;48.144;17.158;2022-10-16T04:02:42;100367.50;;;12.38;100.00
49000;BME280;34808;48.144;17.158;2022-10-16T04:05:09;100259.34;;;11.72;100.00
49000;BME280;34808;48.144;17.158;2022-10-16T04:07:34;100416.44;;;12.66;100.00
49000;BME280;34808;48.144;17.158;2022-10-16T04:10:00;100445.03;;;12.79;100.00
49000;BME280;34808;48.144;17.158;2022-10-16T04:16:23;100446.69;;;12.80;100.00
49000;BME280;34808;48.144;17.158;2022-10-16T04:22:10;100433.09;;;12.61;100.00
49000;BME280;34808;48.144;17.158;2022-10-16T04:24:36;100447.69;;;12.79;100.00
49000;BME280;34808;48.144;17.158;2022-10-16T04:27:01;100416.63;;;12.50;100.00
49000;BME280;34808;48.144;17.158;2022-10-16T04:42:53;100468.66;;;12.68;100.00
49000;BME280;34808;48.144;17.158;2022-10-16T04:55:52;100458.34;;;12.58;100.00
49000;BME280;34808;48.144;17.158;2022-10-16T05:01:50;100450.09;;;12.39;100.00
49000;BME280;34808;48.144;17.158;2022-10-16T05:04:15;100441.66;;;12.36;100.00
49000;BME280;34808;48.144;17.158;2022-10-16T05:06:41;100473.97;;;12.55;100.00
49000;BME280;34808;48.144;17.158;2022-10-16T05:09:16;100466.13;;;12.39;100.00
49000;BME280;34808;48.144;17.158;2022-10-16T05:18:40;100412.13;;;12.02;100.00
49000;BME280;34808;48.144;17.158;2022-10-16T05:37:42;100476.84;;;12.11;100.00
49000;BME280;34808;48.144;17.158;2022-10-16T05:40:08;100506.75;;;12.28;100.00
49000;BME280;34808;48.144;17.158;2022-10-16T05:43:00;100506.34;;;12.31;100.00
49000;BME280;34808;48.144;17.158;2022-10-16T05:48:47;100504.47;;;12.32;100.00
49000;BME280;34808;48.144;17.158;2022-10-16T05:51:14;100472.16;;;12.13;100.00
49000;BME280;34808;48.144;17.158;2022-10-16T05:53:40;100510.91;;;12.37;100.00
49000;BME280;34808;48.144;17.158;2022-10-16T05:56:06;100516.84;;;12.39;100.00
49000;BME280;34808;48.144;17.158;2022-10-16T05:58:34;100522.19;;;12.39;100.00
49000;BME280;34808;48.144;17.158;2022-10-16T06:01:17;100520.97;;;12.42;100.00
49000;BME280;34808;48.144;17.158;2022-10-16T06:03:43;100510.66;;;12.32;100.00
49000;BME280;34808;48.144;17.158;2022-10-16T06:06:16;100529.38;;;12.39;100.00
49000;BME280;34808;48.144;17.158;2022-10-16T06:08:43;100515.56;;;12.28;100.00
49000;BME280;34808;48.144;17.158;2022-10-16T06:11:13;100533.72;;;12.40;100.00
49000;BME280;34808;48.144;17.158;2022-10-16T06:13:38;100514.38;;;12.31;100.00
49000;BME280;34808;48.144;17.158;2022-10-16T06:16:07;100533.75;;;12.47;100.00
49000;BME280;34808;48.144;17.158;2022-10-16T06:18:32;100548.72;;;12.48;100.00
49000;BME280;34808;48.144;17.158;2022-10-16T06:20:57;100529.44;;;12.53;100.00
49000;BME280;34808;48.144;17.158;2022-10-16T06:23:23;100511.34;;;12.55;100.00
49000;BME280;34808;48.144;17.158;2022-10-16T06:25:49;100455.50;;;12.11;100.00
49000;BME280;34808;48.144;17.158;2022-10-16T06:28:15;100510.38;;;12.76;100.00
49000;BME280;34808;48.144;17.158;2022-10-16T06:30:41;100564.13;;;13.02;100.00
49000;BME280;34808;48.144;17.158;2022-10-16T06:33:08;100504.88;;;12.91;100.00
49000;BME280;34808;48.144;17.158;2022-10-16T06:35:33;100509.00;;;13.01;100.00
49000;BME280;34808;48.144;17.158;2022-10-16T06:37:58;100548.91;;;13.23;100.00
49000;BME280;34808;48.144;17.158;2022-10-16T06:40:24;100527.75;;;13.14;100.00
49000;BME280;34808;48.144;17.158;2022-10-16T06:42:49;100561.09;;;13.46;100.00
49000;BME280;34808;48.144;17.158;2022-10-16T06:45:16;100420.16;;;12.65;100.00
49000;BME280;34808;48.144;17.158;2022-10-16T06:47:42;100551.22;;;13.60;100.00
49000;BME280;34808;48.144;17.158;2022-10-16T06:50:07;100539.25;;;13.56;100.00
49000;BME280;34808;48.144;17.158;2022-10-16T06:52:33;100567.47;;;13.92;100.00
49000;BME280;34808;48.144;17.158;2022-10-16T06:54:59;100567.06;;;13.89;100.00
49000;BME280;34808;48.144;17.158;2022-10-16T06:57:25;100568.06;;;14.01;100.00
49000;BME280;34808;48.144;17.158;2022-10-16T06:59:50;100588.25;;;14.11;100.00
49000;BME280;34808;48.144;17.158;2022-10-16T07:02:16;100591.28;;;14.28;100.00
49000;BME280;34808;48.144;17.158;2022-10-16T07:04:41;100523.38;;;14.02;100.00
49000;BME280;34808;48.144;17.158;2022-10-16T07:07:06;100442.34;;;13.61;100.00
49000;BME280;34808;48.144;17.158;2022-10-16T07:09:32;100599.81;;;14.64;100.00
49000;BME280;34808;48.144;17.158;2022-10-16T07:11:57;100571.16;;;14.65;100.00
49000;BME280;34808;48.144;17.158;2022-10-16T07:14:22;100582.22;;;14.82;100.00
49000;BME280;34808;48.144;17.158;2022-10-16T07:16:48;100596.38;;;15.03;100.00
49000;BME280;34808;48.144;17.158;2022-10-16T07:19:14;100574.31;;;15.01;100.00
49000;BME280;34808;48.144;17.158;2022-10-16T07:21:42;100587.16;;;15.25;100.00
49000;BME280;34808;48.144;17.158;2022-10-16T07:24:12;100595.56;;;15.35;100.00
49000;BME280;34808;48.144;17.158;2022-10-16T07:26:39;100597.56;;;15.40;100.00
49000;BME280;34808;48.144;17.158;2022-10-16T07:29:07;100438.44;;;14.55;100.00
49000;BME280;34808;48.144;17.158;2022-10-16T07:31:32;100604.44;;;15.61;100.00
49000;BME280;34808;48.144;17.158;2022-10-16T07:34:01;100599.31;;;15.60;100.00
49000;BME280;34808;48.144;17.158;2022-10-16T07:36:26;100449.81;;;14.83;100.00
49000;BME280;34808;48.144;17.158;2022-10-16T07:38:52;100441.47;;;14.98;100.00
49000;BME280;34808;48.144;17.158;2022-10-16T07:41:19;100378.13;;;14.72;100.00
49000;BME280;34808;48.144;17.158;2022-10-16T07:43:49;100554.91;;;16.02;100.00
49000;BME280;34808;48.144;17.158;2022-10-16T07:46:15;100568.75;;;16.24;100.00
49000;BME280;34808;48.144;17.158;2022-10-16T07:48:42;100596.59;;;16.49;100.00
49000;BME280;34808;48.144;17.158;2022-10-16T07:51:11;100433.53;;;15.74;100.00
49000;BME280;34808;48.144;17.158;2022-10-16T07:53:36;100572.38;;;16.68;100.00
49000;BME280;34808;48.144;17.158;2022-10-16T07:56:04;100592.41;;;17.03;100.00
49000;BME280;34808;48.144;17.158;2022-10-16T07:58:30;100494.63;;;16.35;100.00
49000;BME280;34808;48.144;17.158;2022-10-16T08:00:56;100576.47;;;17.01;100.00
49000;BME280;34808;48.144;17.158;2022-10-16T08:03:22;100605.50;;;17.30;100.00
49000;BME280;34808;48.144;17.158;2022-10-16T08:05:47;100605.25;;;17.44;100.00
49000;BME280;34808;48.144;17.158;2022-10-16T08:08:14;100446.09;;;16.61;100.00
49000;BME280;34808;48.144;17.158;2022-10-16T08:10:40;100614.69;;;17.77;100.00
49000;BME280;34808;48.144;17.158;2022-10-16T08:13:06;100594.66;;;17.85;100.00
49000;BME280;34808;48.144;17.158;2022-10-16T08:15:31;100508.59;;;17.30;100.00
49000;BME280;34808;48.144;17.158;2022-10-16T08:17:58;100470.94;;;17.30;100.00
49000;BME280;34808;48.144;17.158;2022-10-16T08:20:25;100600.63;;;18.35;100.00
49000;BME280;34808;48.144;17.158;2022-10-16T08:22:51;100596.19;;;18.58;100.00
49000;BME280;34808;48.144;17.158;2022-10-16T08:25:16;100598.88;;;18.70;100.00
49000;BME280;34808;48.144;17.158;2022-10-16T08:27:42;100590.53;;;18.72;98.60
49000;BME280;34808;48.144;17.158;2022-10-16T08:30:08;100513.09;;;18.26;97.82
49000;BME280;34808;48.144;17.158;2022-10-16T08:32:33;100480.31;;;18.05;97.10
49000;BME280;34808;48.144;17.158;2022-10-16T08:34:59;100604.41;;;18.93;96.37
49000;BME280;34808;48.144;17.158;2022-10-16T08:37:24;100601.16;;;19.08;96.63
49000;BME280;34808;48.144;17.158;2022-10-16T08:39:50;100556.25;;;18.85;94.96
49000;BME280;34808;48.144;17.158;2022-10-16T08:45:02;100601.91;;;19.03;94.37
49000;BME280;34808;48.144;17.158;2022-10-16T08:50:10;100633.03;;;19.23;93.49
49000;BME280;34808;48.144;17.158;2022-10-16T08:52:40;100637.03;;;19.21;94.28
49000;BME280;34808;48.144;17.158;2022-10-16T08:55:19;100626.41;;;19.02;94.00
49000;BME280;34808;48.144;17.158;2022-10-16T08:57:52;100509.19;;;18.34;95.32
49000;BME280;34808;48.144;17.158;2022-10-16T09:00:18;100487.88;;;18.32;95.90
49000;BME280;34808;48.144;17.158;2022-10-16T09:03:07;100650.88;;;19.24;94.28
49000;BME280;34808;48.144;17.158;2022-10-16T09:06:07;100631.84;;;19.49;94.11
49000;BME280;34808;48.144;17.158;2022-10-16T09:11:48;100630.22;;;19.82;94.34
49000;BME280;34808;48.144;17.158;2022-10-16T09:17:04;100583.78;;;19.85;90.01
49000;BME280;34808;48.144;17.158;2022-10-16T09:19:39;100522.75;;;19.50;89.17
49000;BME280;34808;48.144;17.158;2022-10-16T09:22:16;100483.25;;;19.43;88.29
49000;BME280;34808;48.144;17.158;2022-10-16T09:24:42;100625.09;;;20.43;87.66
49000;BME280;34808;48.144;17.158;2022-10-16T09:27:11;100635.34;;;20.63;87.33
49000;BME280;34808;48.144;17.158;2022-10-16T09:29:37;100475.81;;;19.73;86.00
49000;BME280;34808;48.144;17.158;2022-10-16T09:32:15;100630.88;;;20.74;85.84
49000;BME280;34808;48.144;17.158;2022-10-16T09:34:47;100628.50;;;20.78;85.04
49000;BME280;34808;48.144;17.158;2022-10-16T09:37:17;100487.63;;;19.89;84.67
49000;BME280;34808;48.144;17.158;2022-10-16T09:39:51;100640.88;;;20.74;85.10
49000;BME280;34808;48.144;17.158;2022-10-16T09:42:30;100588.47;;;20.58;84.60
49000;BME280;34808;48.144;17.158;2022-10-16T09:44:56;100629.88;;;20.81;84.34
49000;BME280;34808;48.144;17.158;2022-10-16T09:47:24;100495.22;;;19.70;84.59
49000;BME280;34808;48.144;17.158;2022-10-16T09:52:21;100599.63;;;20.39;85.13
49000;BME280;34808;48.144;17.158;2022-10-16T09:55:14;100651.69;;;20.96;85.21
49000;BME280;34808;48.144;17.158;2022-10-16T09:57:53;100640.88;;;21.24;85.49
49000;BME280;34808;48.144;17.158;2022-10-16T10:00:20;100659.78;;;21.47;82.38
49000;BME280;34808;48.144;17.158;2022-10-16T10:05:22;100645.59;;;21.72;81.00
49000;BME280;34808;48.144;17.158;2022-10-16T10:08:01;100583.84;;;21.36;79.58
49000;BME280;34808;48.144;17.158;2022-10-16T10:10:34;100422.13;;;20.27;79.17
49000;BME280;34808;48.144;17.158;2022-10-16T10:13:03;100634.69;;;21.95;79.17
49000;BME280;34808;48.144;17.158;2022-10-16T10:15:33;100653.75;;;22.11;78.60
49000;BME280;34808;48.144;17.158;2022-10-16T10:18:00;100653.81;;;22.21;78.32
49000;BME280;34808;48.144;17.158;2022-10-16T10:20:32;100539.06;;;21.61;77.32
49000;BME280;34808;48.144;17.158;2022-10-16T10:23:00;100646.81;;;22.36;78.63
49000;BME280;34808;48.144;17.158;2022-10-16T10:28:16;100635.75;;;22.48;77.82
49000;BME280;34808;48.144;17.158;2022-10-16T10:31:08;100642.38;;;22.78;77.24
49000;BME280;34808;48.144;17.158;2022-10-16T10:33:41;100634.84;;;23.01;76.16
49000;BME280;34808;48.144;17.158;2022-10-16T10:50:22;100630.81;;;23.51;72.71
49000;BME280;34808;48.144;17.158;2022-10-16T10:58:06;100624.00;;;23.28;72.42
49000;BME280;34808;48.144;17.158;2022-10-16T11:03:26;100635.44;;;23.61;72.46
49000;BME280;34808;48.144;17.158;2022-10-16T11:06:04;100619.94;;;23.51;72.02
49000;BME280;34808;48.144;17.158;2022-10-16T11:08:42;100624.28;;;23.52;71.71
49000;BME280;34808;48.144;17.158;2022-10-16T11:11:23;100621.28;;;23.64;71.34
49000;BME280;34808;48.144;17.158;2022-10-16T11:14:05;100617.19;;;23.83;71.69
49000;BME280;34808;48.144;17.158;2022-10-16T11:16:47;100630.19;;;24.12;70.50
49000;BME280;34808;48.144;17.158;2022-10-16T11:19:31;100624.66;;;24.43;69.57
49000;BME280;34808;48.144;17.158;2022-10-16T11:22:19;100613.47;;;24.50;69.90
49000;BME280;34808;48.144;17.158;2022-10-16T11:24:59;100618.50;;;24.73;69.18
49000;BME280;34808;48.144;17.158;2022-10-16T11:27:52;100622.75;;;24.90;68.82
49000;BME280;34808;48.144;17.158;2022-10-16T11:30:24;100614.69;;;24.74;68.26
49000;BME280;34808;48.144;17.158;2022-10-16T11:39:00;100612.66;;;25.66;65.79
49000;BME280;34808;48.144;17.158;2022-10-16T11:41:34;100608.94;;;25.56;65.63
49000;BME280;34808;48.144;17.158;2022-10-16T11:46:52;100464.38;;;25.12;65.04
49000;BME280;34808;48.144;17.158;2022-10-16T11:49:25;100588.66;;;26.17;64.76
49000;BME280;34808;48.144;17.158;2022-10-16T11:54:29;100605.91;;;26.56;63.75
49000;BME280;34808;48.144;17.158;2022-10-16T11:57:03;100528.44;;;25.89;63.39
49000;BME280;34808;48.144;17.158;2022-10-16T11:59:56;100586.16;;;26.65;63.00
49000;BME280;34808;48.144;17.158;2022-10-16T12:02:45;100586.44;;;26.82;62.41
49000;BME280;34808;48.144;17.158;2022-10-16T12:08:16;100604.31;;;27.27;61.78
49000;BME280;34808;48.144;17.158;2022-10-16T12:10:44;100579.66;;;27.13;61.35
49000;BME280;34808;48.144;17.158;2022-10-16T12:13:35;100572.09;;;27.58;60.87
49000;BME280;34808;48.144;17.158;2022-10-16T12:18:40;100606.38;;;27.84;60.25
49000;BME280;34808;48.144;17.158;2022-10-16T12:21:06;100540.06;;;27.44;60.05
49000;BME280;34808;48.144;17.158;2022-10-16T12:23:36;100490.66;;;27.41;60.22
49000;BME280;34808;48.144;17.158;2022-10-16T12:26:03;100439.22;;;27.29;59.65
49000;BME280;34808;48.144;17.158;2022-10-16T12:28:31;100482.03;;;27.33;58.95
49000;BME280;34808;48.144;17.158;2022-10-16T12:31:05;100585.97;;;28.18;59.30
49000;BME280;34808;48.144;17.158;2022-10-16T12:33:36;100496.22;;;27.78;58.65
49000;BME280;34808;48.144;17.158;2022-10-16T12:36:15;100362.56;;;27.05;57.86
49000;BME280;34808;48.144;17.158;2022-10-16T12:38:49;100561.09;;;28.43;57.95
49000;BME280;34808;48.144;17.158;2022-10-16T12:41:33;100513.53;;;28.39;57.73
49000;BME280;34808;48.144;17.158;2022-10-16T12:44:00;100579.34;;;28.85;57.19
49000;BME280;34808;48.144;17.158;2022-10-16T12:51:39;100457.75;;;28.72;56.25
49000;BME280;34808;48.144;17.158;2022-10-16T12:54:14;100582.56;;;29.74;56.15
49000;BME280;34808;48.144;17.158;2022-10-16T12:59:57;100593.16;;;29.99;54.92
49000;BME280;34808;48.144;17.158;2022-10-16T13:05:50;100601.81;;;30.42;54.28
49000;BME280;34808;48.144;17.158;2022-10-16T13:17:00;100605.38;;;30.78;53.07
49000;BME280;34808;48.144;17.158;2022-10-16T13:19:45;100604.41;;;30.91;52.66
49000;BME280;34808;48.144;17.158;2022-10-16T13:24:51;100537.84;;;30.77;52.33
49000;BME280;34808;48.144;17.158;2022-10-16T13:29:53;100450.75;;;30.33;51.82
49000;BME280;34808;48.144;17.158;2022-10-16T13:32:21;100599.69;;;31.19;52.01
49000;BME280;34808;48.144;17.158;2022-10-16T13:34:48;100612.03;;;30.86;51.90
49000;BME280;34808;48.144;17.158;2022-10-16T13:37:19;100595.50;;;30.94;51.64
49000;BME280;34808;48.144;17.158;2022-10-16T13:39:45;100613.63;;;30.69;52.02
49000;BME280;34808;48.144;17.158;2022-10-16T13:42:30;100568.00;;;30.14;51.98
49000;BME280;34808;48.144;17.158;2022-10-16T13:44:56;100563.03;;;30.79;51.36
49000;BME280;34808;48.144;17.158;2022-10-16T13:47:27;100604.25;;;31.14;51.36
49000;BME280;34808;48.144;17.158;2022-10-16T13:50:00;100435.91;;;29.21;51.73
49000;BME280;34808;48.144;17.158;2022-10-16T13:52:26;100402.25;;;28.98;52.22
49000;BME280;34808;48.144;17.158;2022-10-16T13:54:52;100556.16;;;29.78;52.26
49000;BME280;34808;48.144;17.158;2022-10-16T13:57:17;100587.97;;;29.88;52.71
49000;BME280;34808;48.144;17.158;2022-10-16T13:59:43;100584.47;;;29.64;52.35
49000;BME280;34808;48.144;17.158;2022-10-16T14:02:19;100555.94;;;29.74;51.97
49000;BME280;34808;48.144;17.158;2022-10-16T14:04:47;100573.84;;;30.84;51.36
49000;BME280;34808;48.144;17.158;2022-10-16T14:07:37;100603.41;;;31.23;50.75
49000;BME280;34808;48.144;17.158;2022-10-16T14:10:04;100621.38;;;30.93;51.08
49000;BME280;34808;48.144;17.158;2022-10-16T14:12:30;100622.69;;;29.93;51.62
49000;BME280;34808;48.144;17.158;2022-10-16T14:14:57;100446.00;;;28.11;52.58
49000;BME280;34808;48.144;17.158;2022-10-16T14:17:29;100618.75;;;28.75;53.21
49000;BME280;34808;48.144;17.158;2022-10-16T14:19:58;100642.63;;;28.18;53.83
49000;BME280;34808;48.144;17.158;2022-10-16T14:22:41;100550.09;;;27.15;54.63
49000;BME280;34808;48.144;17.158;2022-10-16T14:27:44;100493.31;;;26.45;55.39
49000;BME280;34808;48.144;17.158;2022-10-16T14:32:42;100615.16;;;27.66;55.24
49000;BME280;34808;48.144;17.158;2022-10-16T14:35:30;100604.53;;;28.35;54.44
49000;BME280;34808;48.144;17.158;2022-10-16T14:37:58;100622.75;;;28.54;54.09
49000;BME280;34808;48.144;17.158;2022-10-16T14:40:27;100524.50;;;27.87;54.41
49000;BME280;34808;48.144;17.158;2022-10-16T14:42:54;100616.94;;;28.42;54.23
49000;BME280;34808;48.144;17.158;2022-10-16T14:45:26;100463.22;;;27.18;54.30
49000;BME280;34808;48.144;17.158;2022-10-16T14:47:54;100618.94;;;28.13;54.34
49000;BME280;34808;48.144;17.158;2022-10-16T14:50:20;100621.75;;;28.08;54.73
49000;BME280;34808;48.144;17.158;2022-10-16T14:52:46;100558.72;;;27.99;54.16
49000;BME280;34808;48.144;17.158;2022-10-16T14:55:11;100560.44;;;28.23;53.84
49000;BME280;34808;48.144;17.158;2022-10-16T14:57:37;100618.19;;;28.87;53.65
49000;BME280;34808;48.144;17.158;2022-10-16T15:00:10;100501.19;;;27.90;54.11
49000;BME280;34808;48.144;17.158;2022-10-16T15:02:38;100562.19;;;27.90;54.57
49000;BME280;34808;48.144;17.158;2022-10-16T15:05:19;100546.53;;;27.34;55.18
49000;BME280;34808;48.144;17.158;2022-10-16T15:07:45;100617.66;;;27.48;56.00
49000;BME280;34808;48.144;17.158;2022-10-16T15:10:13;100621.72;;;27.18;56.15
49000;BME280;34808;48.144;17.158;2022-10-16T15:12:39;100531.38;;;26.36;56.74
49000;BME280;34808;48.144;17.158;2022-10-16T15:17:53;100590.94;;;25.85;58.13
49000;BME280;34808;48.144;17.158;2022-10-16T15:20:21;100600.69;;;25.61;58.86
49000;BME280;34808;48.144;17.158;2022-10-16T15:22:47;100619.91;;;25.46;59.75
49000;BME280;34808;48.144;17.158;2022-10-16T15:28:00;100630.44;;;24.82;61.20
49000;BME280;34808;48.144;17.158;2022-10-16T15:30:26;100420.81;;;23.35;61.83
49000;BME280;34808;48.144;17.158;2022-10-16T15:32:52;100632.53;;;24.45;62.30
49000;BME280;34808;48.144;17.158;2022-10-16T15:35:18;100596.22;;;24.04;62.81